sensor_id;sensor_type;location;lat;lon;timestamp;P1;durP1;ratioP1;P2;durP2;ratioP2
16460;SDS011;8341;42.048;24.650;2023-03-01T00:00:50;26.90;;;7.33;;
16460;SDS011;8341;42.048;24.650;2023-03-01T00:03:17;10.27;;;6.70;;
16460;SDS011;8341;42.048;24.650;2023-03-01T00:05:44;26.13;;;7.40;;
16460;SDS011;8341;42.048;24.650;2023-03-01T00:08:12;7.73;;;6.20;;
16460;SDS011;8341;42.048;24.650;2023-03-01T00:10:39;8.30;;;6.27;;
16460;SDS011;8341;42.048;24.650;2023-03-01T00:13:06;9.43;;;7.20;;
16460;SDS011;8341;42.048;24.650;2023-03-01T00:15:33;10.23;;;6.85;;
16460;SDS011;8341;42.048;24.650;2023-03-01T00:18:04;9.02;;;6.30;;
16460;SDS011;8341;42.048;24.650;2023-03-01T00:20:31;7.85;;;5.82;;
16460;SDS011;8341;42.048;24.650;2023-03-01T00:22:58;8.93;;;6.30;;
16460;SDS011;8341;42.048;24.650;2023-03-01T00:25:26;7.67;;;6.00;;
16460;SDS011;8341;42.048;24.650;2023-03-01T00:27:53;8.05;;;5.72;;
16460;SDS011;8341;42.048;24.650;2023-03-01T00:30:20;6.63;;;5.60;;
16460;SDS011;8341;42.048;24.650;2023-03-01T00:32:47;7.80;;;6.15;;
16460;SDS011;8341;42.048;24.650;2023-03-01T00:35:14;8.55;;;6.22;;
16460;SDS011;8341;42.048;24.650;2023-03-01T00:37:41;7.93;;;6.00;;
16460;SDS011;8341;42.048;24.650;2023-03-01T00:40:08;8.95;;;6.05;;
16460;SDS011;8341;42.048;24.650;2023-03-01T00:42:37;8.82;;;6.97;;
16460;SDS011;8341;42.048;24.650;2023-03-01T00:45:04;8.10;;;6.55;;
16460;SDS011;8341;42.048;24.650;2023-03-01T00:47:33;7.05;;;5.35;;
16460;SDS011;8341;42.048;24.650;2023-03-01T00:49:59;8.70;;;6.32;;
16460;SDS011;8341;42.048;24.650;2023-03-01T00:52:26;9.48;;;6.55;;
16460;SDS011;8341;42.048;24.650;2023-03-01T00:54:53;8.80;;;6.65;;
16460;SDS011;8341;42.048;24.650;2023-03-01T00:57:20;6.68;;;4.80;;
16460;SDS011;8341;42.048;24.650;2023-03-01T00:59:48;6.55;;;5.38;;
16460;SDS011;8341;42.048;24.650;2023-03-01T01:02:17;9.00;;;6.70;;
16460;SDS011;8341;42.048;24.650;2023-03-01T01:04:44;9.63;;;6.88;;
16460;SDS011;8341;42.048;24.650;2023-03-01T01:07:11;7.18;;;5.68;;
16460;SDS011;8341;42.048;24.650;2023-03-01T01:09:39;7.38;;;5.93;;
16460;SDS011;8341;42.048;24.650;2023-03-01T01:12:06;7.60;;;5.70;;
16460;SDS011;8341;42.048;24.650;2023-03-01T01:14:33;8.88;;;6.05;;
16460;SDS011;8341;42.048;24.650;2023-03-01T01:17:01;9.27;;;6.43;;
16460;SDS011;8341;42.048;24.650;2023-03-01T01:19:28;10.13;;;6.55;;
16460;SDS011;8341;42.048;24.650;2023-03-01T01:21:55;8.82;;;6.20;;
16460;SDS011;8341;42.048;24.650;2023-03-01T01:24:23;9.02;;;6.60;;
16460;SDS011;8341;42.048;24.650;2023-03-01T01:26:49;8.75;;;6.63;;
16460;SDS011;8341;42.048;24.650;2023-03-01T01:29:16;9.48;;;6.90;;
16460;SDS011;8341;42.048;24.650;2023-03-01T01:31:43;11.48;;;7.32;;
16460;SDS011;8341;42.048;24.650;2023-03-01T01:34:14;27.88;;;8.77;;
16460;SDS011;8341;42.048;24.650;2023-03-01T01:36:42;16.58;;;7.45;;
16460;SDS011;8341;42.048;24.650;2023-03-01T01:39:09;26.03;;;8.70;;
16460;SDS011;8341;42.048;24.650;2023-03-01T01:41:38;60.72;;;9.40;;
16460;SDS011;8341;42.048;24.650;2023-03-01T01:44:12;119.70;;;15.03;;
16460;SDS011;8341;42.048;24.650;2023-03-01T01:46:41;90.65;;;11.30;;
16460;SDS011;8341;42.048;24.650;2023-03-01T01:49:15;78.10;;;10.43;;
16460;SDS011;8341;42.048;24.650;2023-03-01T01:51:49;75.27;;;16.40;;
16460;SDS011;8341;42.048;24.650;2023-03-01T01:54:21;16.83;;;9.53;;
16460;SDS011;8341;42.048;24.650;2023-03-01T01:56:51;179.63;;;15.77;;
16460;SDS011;8341;42.048;24.650;2023-03-01T01:59:21;170.77;;;17.57;;
16460;SDS011;8341;42.048;24.650;2023-03-01T02:01:50;16.27;;;12.07;;
16460;SDS011;8341;42.048;24.650;2023-03-01T02:04:19;161.13;;;16.17;;
16460;SDS011;8341;42.048;24.650;2023-03-01T02:06:48;18.25;;;9.27;;
16460;SDS011;8341;42.048;24.650;2023-03-01T02:09:21;23.80;;;9.57;;
16460;SDS011;8341;42.048;24.650;2023-03-01T02:11:50;26.92;;;9.18;;
16460;SDS011;8341;42.048;24.650;2023-03-01T02:14:17;31.00;;;9.50;;
16460;SDS011;8341;42.048;24.650;2023-03-01T02:16:44;246.23;;;18.05;;
16460;SDS011;8341;42.048;24.650;2023-03-01T02:19:13;18.23;;;8.98;;
16460;SDS011;8341;42.048;24.650;2023-03-01T02:21:54;50.85;;;10.50;;
16460;SDS011;8341;42.048;24.650;2023-03-01T02:24:28;18.48;;;9.90;;
16460;SDS011;8341;42.048;24.650;2023-03-01T02:27:05;198.65;;;15.65;;
16460;SDS011;8341;42.048;24.650;2023-03-01T02:29:33;159.65;;;14.68;;
16460;SDS011;8341;42.048;24.650;2023-03-01T02:32:01;244.90;;;18.45;;
16460;SDS011;8341;42.048;24.650;2023-03-01T02:34:30;97.97;;;12.77;;
16460;SDS011;8341;42.048;24.650;2023-03-01T02:37:00;71.53;;;12.30;;
16460;SDS011;8341;42.048;24.650;2023-03-01T02:39:30;245.18;;;18.65;;
16460;SDS011;8341;42.048;24.650;2023-03-01T02:42:00;206.27;;;17.38;;
16460;SDS011;8341;42.048;24.650;2023-03-01T02:44:30;23.90;;;10.68;;
16460;SDS011;8341;42.048;24.650;2023-03-01T02:46:58;23.17;;;11.07;;
16460;SDS011;8341;42.048;24.650;2023-03-01T02:49:29;185.48;;;17.40;;
16460;SDS011;8341;42.048;24.650;2023-03-01T02:52:05;15.32;;;10.32;;
16460;SDS011;8341;42.048;24.650;2023-03-01T02:54:43;15.80;;;9.98;;
16460;SDS011;8341;42.048;24.650;2023-03-01T02:57:15;158.75;;;15.43;;
16460;SDS011;8341;42.048;24.650;2023-03-01T02:59:42;50.28;;;11.63;;
16460;SDS011;8341;42.048;24.650;2023-03-01T03:02:19;13.95;;;9.80;;
16460;SDS011;8341;42.048;24.650;2023-03-01T03:05:01;37.60;;;11.52;;
16460;SDS011;8341;42.048;24.650;2023-03-01T03:07:31;16.40;;;9.48;;
16460;SDS011;8341;42.048;24.650;2023-03-01T03:09:59;15.70;;;8.65;;
16460;SDS011;8341;42.048;24.650;2023-03-01T03:12:26;15.35;;;8.13;;
16460;SDS011;8341;42.048;24.650;2023-03-01T03:14:53;672.53;;;31.02;;
16460;SDS011;8341;42.048;24.650;2023-03-01T03:17:21;12.25;;;8.32;;
16460;SDS011;8341;42.048;24.650;2023-03-01T03:19:48;12.38;;;8.18;;
16460;SDS011;8341;42.048;24.650;2023-03-01T03:22:15;9.95;;;7.57;;
16460;SDS011;8341;42.048;24.650;2023-03-01T03:24:42;10.65;;;7.10;;
16460;SDS011;8341;42.048;24.650;2023-03-01T03:27:09;9.13;;;7.05;;
16460;SDS011;8341;42.048;24.650;2023-03-01T03:29:36;10.65;;;7.90;;
16460;SDS011;8341;42.048;24.650;2023-03-01T03:32:03;10.70;;;7.10;;
16460;SDS011;8341;42.048;24.650;2023-03-01T03:34:31;10.90;;;7.50;;
16460;SDS011;8341;42.048;24.650;2023-03-01T03:36:58;9.90;;;7.72;;
16460;SDS011;8341;42.048;24.650;2023-03-01T03:39:26;18.73;;;6.63;;
16460;SDS011;8341;42.048;24.650;2023-03-01T03:41:54;142.48;;;11.30;;
16460;SDS011;8341;42.048;24.650;2023-03-01T03:44:20;394.85;;;20.63;;
16460;SDS011;8341;42.048;24.650;2023-03-01T03:46:47;239.77;;;14.13;;
16460;SDS011;8341;42.048;24.650;2023-03-01T03:49:14;8.73;;;6.10;;
16460;SDS011;8341;42.048;24.650;2023-03-01T03:51:44;15.18;;;9.82;;
16460;SDS011;8341;42.048;24.650;2023-03-01T03:54:11;10.45;;;7.63;;
16460;SDS011;8341;42.048;24.650;2023-03-01T03:56:38;18.02;;;8.15;;
16460;SDS011;8341;42.048;24.650;2023-03-01T03:59:05;195.57;;;13.82;;
16460;SDS011;8341;42.048;24.650;2023-03-01T04:01:32;317.48;;;17.80;;
16460;SDS011;8341;42.048;24.650;2023-03-01T04:03:59;173.60;;;12.05;;
16460;SDS011;8341;42.048;24.650;2023-03-01T04:06:29;42.83;;;7.70;;
16460;SDS011;8341;42.048;24.650;2023-03-01T04:08:58;252.30;;;13.93;;
16460;SDS011;8341;42.048;24.650;2023-03-01T04:11:28;8.23;;;5.43;;
16460;SDS011;8341;42.048;24.650;2023-03-01T04:13:56;397.92;;;19.38;;
16460;SDS011;8341;42.048;24.650;2023-03-01T04:16:24;220.32;;;14.43;;
16460;SDS011;8341;42.048;24.650;2023-03-01T04:18:51;82.20;;;8.07;;
16460;SDS011;8341;42.048;24.650;2023-03-01T04:21:20;159.65;;;12.48;;
16460;SDS011;8341;42.048;24.650;2023-03-01T04:23:47;163.27;;;10.85;;
16460;SDS011;8341;42.048;24.650;2023-03-01T04:26:19;174.35;;;12.48;;
16460;SDS011;8341;42.048;24.650;2023-03-01T04:28:46;174.18;;;12.95;;
16460;SDS011;8341;42.048;24.650;2023-03-01T04:31:15;443.33;;;22.40;;
16460;SDS011;8341;42.048;24.650;2023-03-01T04:33:46;457.80;;;22.73;;
16460;SDS011;8341;42.048;24.650;2023-03-01T04:36:17;455.15;;;23.27;;
16460;SDS011;8341;42.048;24.650;2023-03-01T04:38:45;300.95;;;18.63;;
16460;SDS011;8341;42.048;24.650;2023-03-01T04:41:14;199.75;;;14.45;;
16460;SDS011;8341;42.048;24.650;2023-03-01T04:43:43;335.13;;;18.97;;
16460;SDS011;8341;42.048;24.650;2023-03-01T04:46:11;198.27;;;15.05;;
16460;SDS011;8341;42.048;24.650;2023-03-01T04:48:41;594.05;;;33.47;;
16460;SDS011;8341;42.048;24.650;2023-03-01T04:51:08;357.08;;;20.20;;
16460;SDS011;8341;42.048;24.650;2023-03-01T04:53:38;124.53;;;11.88;;
16460;SDS011;8341;42.048;24.650;2023-03-01T04:56:06;512.30;;;27.00;;
16460;SDS011;8341;42.048;24.650;2023-03-01T04:58:33;18.63;;;9.57;;
16460;SDS011;8341;42.048;24.650;2023-03-01T05:01:01;72.47;;;11.00;;
16460;SDS011;8341;42.048;24.650;2023-03-01T05:03:40;18.70;;;8.40;;
16460;SDS011;8341;42.048;24.650;2023-03-01T05:06:08;187.57;;;13.35;;
16460;SDS011;8341;42.048;24.650;2023-03-01T05:08:36;83.95;;;9.27;;
16460;SDS011;8341;42.048;24.650;2023-03-01T05:11:03;43.42;;;9.07;;
16460;SDS011;8341;42.048;24.650;2023-03-01T05:13:34;148.43;;;11.48;;
16460;SDS011;8341;42.048;24.650;2023-03-01T05:16:04;695.53;;;35.13;;
16460;SDS011;8341;42.048;24.650;2023-03-01T05:18:36;628.00;;;29.17;;
16460;SDS011;8341;42.048;24.650;2023-03-01T05:21:04;566.58;;;27.70;;
16460;SDS011;8341;42.048;24.650;2023-03-01T05:23:33;628.65;;;29.10;;
16460;SDS011;8341;42.048;24.650;2023-03-01T05:26:00;142.73;;;10.38;;
16460;SDS011;8341;42.048;24.650;2023-03-01T05:28:29;17.02;;;7.57;;
16460;SDS011;8341;42.048;24.650;2023-03-01T05:30:57;11.75;;;6.93;;
16460;SDS011;8341;42.048;24.650;2023-03-01T05:33:25;12.57;;;7.32;;
16460;SDS011;8341;42.048;24.650;2023-03-01T05:35:53;11.85;;;7.28;;
16460;SDS011;8341;42.048;24.650;2023-03-01T05:38:20;46.40;;;8.65;;
16460;SDS011;8341;42.048;24.650;2023-03-01T05:40:48;256.55;;;16.90;;
16460;SDS011;8341;42.048;24.650;2023-03-01T05:43:15;199.88;;;13.52;;
16460;SDS011;8341;42.048;24.650;2023-03-01T05:45:43;17.55;;;7.72;;
16460;SDS011;8341;42.048;24.650;2023-03-01T05:48:10;305.00;;;18.30;;
16460;SDS011;8341;42.048;24.650;2023-03-01T05:50:40;53.75;;;9.27;;
16460;SDS011;8341;42.048;24.650;2023-03-01T05:53:10;119.65;;;11.18;;
16460;SDS011;8341;42.048;24.650;2023-03-01T05:55:38;11.10;;;6.82;;
16460;SDS011;8341;42.048;24.650;2023-03-01T05:58:06;657.38;;;33.08;;
16460;SDS011;8341;42.048;24.650;2023-03-01T06:00:34;528.58;;;29.02;;
16460;SDS011;8341;42.048;24.650;2023-03-01T06:03:01;11.77;;;7.32;;
16460;SDS011;8341;42.048;24.650;2023-03-01T06:05:28;65.47;;;9.48;;
16460;SDS011;8341;42.048;24.650;2023-03-01T06:07:59;586.38;;;30.17;;
16460;SDS011;8341;42.048;24.650;2023-03-01T06:10:27;717.72;;;36.83;;
16460;SDS011;8341;42.048;24.650;2023-03-01T06:12:54;336.35;;;22.40;;
16460;SDS011;8341;42.048;24.650;2023-03-01T06:15:21;267.80;;;18.20;;
16460;SDS011;8341;42.048;24.650;2023-03-01T06:17:49;423.20;;;22.65;;
16460;SDS011;8341;42.048;24.650;2023-03-01T06:20:17;507.67;;;25.25;;
16460;SDS011;8341;42.048;24.650;2023-03-01T06:22:45;271.98;;;16.05;;
16460;SDS011;8341;42.048;24.650;2023-03-01T06:25:15;265.65;;;15.85;;
16460;SDS011;8341;42.048;24.650;2023-03-01T06:27:44;132.40;;;11.45;;
16460;SDS011;8341;42.048;24.650;2023-03-01T08:25:13;3.60;;;3.10;;
16460;SDS011;8341;42.048;24.650;2023-03-01T08:27:40;4.05;;;3.45;;
16460;SDS011;8341;42.048;24.650;2023-03-01T08:30:07;5.78;;;4.18;;
16460;SDS011;8341;42.048;24.650;2023-03-01T08:32:35;5.85;;;4.13;;
16460;SDS011;8341;42.048;24.650;2023-03-01T08:35:03;4.88;;;4.22;;
16460;SDS011;8341;42.048;24.650;2023-03-01T08:37:31;6.97;;;5.60;;
16460;SDS011;8341;42.048;24.650;2023-03-01T08:39:58;8.63;;;6.32;;
16460;SDS011;8341;42.048;24.650;2023-03-01T08:42:26;7.60;;;6.30;;
16460;SDS011;8341;42.048;24.650;2023-03-01T08:44:53;8.00;;;6.35;;
16460;SDS011;8341;42.048;24.650;2023-03-01T08:47:21;8.75;;;6.57;;
16460;SDS011;8341;42.048;24.650;2023-03-01T08:49:49;8.60;;;6.53;;
16460;SDS011;8341;42.048;24.650;2023-03-01T08:52:16;6.53;;;5.78;;
16460;SDS011;8341;42.048;24.650;2023-03-01T08:54:43;5.78;;;5.20;;
16460;SDS011;8341;42.048;24.650;2023-03-01T08:57:10;5.72;;;5.13;;
16460;SDS011;8341;42.048;24.650;2023-03-01T08:59:39;10.35;;;5.90;;
16460;SDS011;8341;42.048;24.650;2023-03-01T09:02:10;5.20;;;4.70;;
16460;SDS011;8341;42.048;24.650;2023-03-01T09:04:39;3.20;;;2.90;;
16460;SDS011;8341;42.048;24.650;2023-03-01T09:07:06;4.38;;;2.70;;
16460;SDS011;8341;42.048;24.650;2023-03-01T09:09:34;4.60;;;2.78;;
16460;SDS011;8341;42.048;24.650;2023-03-01T09:12:01;3.05;;;2.63;;
16460;SDS011;8341;42.048;24.650;2023-03-01T09:14:29;2.80;;;2.60;;
16460;SDS011;8341;42.048;24.650;2023-03-01T09:16:57;4.03;;;2.60;;
16460;SDS011;8341;42.048;24.650;2023-03-01T09:19:27;3.67;;;2.63;;
16460;SDS011;8341;42.048;24.650;2023-03-01T09:21:54;4.90;;;2.60;;
16460;SDS011;8341;42.048;24.650;2023-03-01T09:24:24;4.13;;;3.10;;
16460;SDS011;8341;42.048;24.650;2023-03-01T09:26:52;3.97;;;3.67;;
16460;SDS011;8341;42.048;24.650;2023-03-01T09:29:20;7.57;;;6.57;;
16460;SDS011;8341;42.048;24.650;2023-03-01T09:31:48;5.93;;;4.07;;
16460;SDS011;8341;42.048;24.650;2023-03-01T09:34:16;4.38;;;3.63;;
16460;SDS011;8341;42.048;24.650;2023-03-01T09:36:48;3.50;;;2.88;;
16460;SDS011;8341;42.048;24.650;2023-03-01T09:39:15;3.80;;;3.40;;
16460;SDS011;8341;42.048;24.650;2023-03-01T09:41:44;4.72;;;3.50;;
16460;SDS011;8341;42.048;24.650;2023-03-01T09:44:16;3.20;;;2.70;;
16460;SDS011;8341;42.048;24.650;2023-03-01T09:46:57;3.90;;;2.50;;
16460;SDS011;8341;42.048;24.650;2023-03-01T09:49:27;3.92;;;2.75;;
16460;SDS011;8341;42.048;24.650;2023-03-01T09:51:58;3.83;;;3.05;;
16460;SDS011;8341;42.048;24.650;2023-03-01T09:54:29;4.05;;;3.60;;
16460;SDS011;8341;42.048;24.650;2023-03-01T09:57:04;5.68;;;3.42;;
16460;SDS011;8341;42.048;24.650;2023-03-01T09:59:41;4.65;;;3.20;;
16460;SDS011;8341;42.048;24.650;2023-03-01T10:02:24;3.15;;;2.83;;
16460;SDS011;8341;42.048;24.650;2023-03-01T10:05:01;3.83;;;2.75;;
16460;SDS011;8341;42.048;24.650;2023-03-01T10:07:42;5.75;;;2.92;;
16460;SDS011;8341;42.048;24.650;2023-03-01T10:10:16;5.20;;;3.65;;
16460;SDS011;8341;42.048;24.650;2023-03-01T10:12:52;4.47;;;3.28;;
16460;SDS011;8341;42.048;24.650;2023-03-01T10:15:22;5.95;;;4.07;;
16460;SDS011;8341;42.048;24.650;2023-03-01T10:18:02;5.07;;;3.70;;
16460;SDS011;8341;42.048;24.650;2023-03-01T10:20:37;3.28;;;2.65;;
16460;SDS011;8341;42.048;24.650;2023-03-01T10:23:12;3.67;;;2.75;;
16460;SDS011;8341;42.048;24.650;2023-03-01T10:25:44;4.40;;;3.00;;
16460;SDS011;8341;42.048;24.650;2023-03-01T10:28:31;3.70;;;3.40;;
16460;SDS011;8341;42.048;24.650;2023-03-01T10:31:10;4.13;;;3.72;;
16460;SDS011;8341;42.048;24.650;2023-03-01T10:33:40;5.47;;;3.60;;
16460;SDS011;8341;42.048;24.650;2023-03-01T10:36:09;5.25;;;3.95;;
16460;SDS011;8341;42.048;24.650;2023-03-01T10:38:49;4.40;;;2.80;;
16460;SDS011;8341;42.048;24.650;2023-03-01T10:41:19;3.72;;;3.30;;
16460;SDS011;8341;42.048;24.650;2023-03-01T10:43:49;7.90;;;5.35;;
16460;SDS011;8341;42.048;24.650;2023-03-01T10:46:27;3.35;;;2.92;;
16460;SDS011;8341;42.048;24.650;2023-03-01T10:49:05;3.90;;;3.33;;
16460;SDS011;8341;42.048;24.650;2023-03-01T10:51:35;5.70;;;3.65;;
16460;SDS011;8341;42.048;24.650;2023-03-01T10:54:04;4.30;;;3.90;;
16460;SDS011;8341;42.048;24.650;2023-03-01T10:56:51;7.10;;;4.70;;
16460;SDS011;8341;42.048;24.650;2023-03-01T10:59:22;5.63;;;5.03;;
16460;SDS011;8341;42.048;24.650;2023-03-01T11:02:03;4.55;;;4.15;;
16460;SDS011;8341;42.048;24.650;2023-03-01T11:04:46;5.03;;;3.65;;
16460;SDS011;8341;42.048;24.650;2023-03-01T11:07:25;4.53;;;3.80;;
16460;SDS011;8341;42.048;24.650;2023-03-01T11:09:52;3.50;;;3.20;;
16460;SDS011;8341;42.048;24.650;2023-03-01T11:12:19;3.40;;;3.20;;
16460;SDS011;8341;42.048;24.650;2023-03-01T11:14:48;4.05;;;3.65;;
16460;SDS011;8341;42.048;24.650;2023-03-01T11:17:17;4.25;;;2.95;;
16460;SDS011;8341;42.048;24.650;2023-03-01T11:19:59;4.75;;;3.40;;
16460;SDS011;8341;42.048;24.650;2023-03-01T11:22:30;3.05;;;2.83;;
16460;SDS011;8341;42.048;24.650;2023-03-01T11:24:58;3.50;;;3.20;;
16460;SDS011;8341;42.048;24.650;2023-03-01T11:27:28;5.28;;;3.08;;
16460;SDS011;8341;42.048;24.650;2023-03-01T11:29:59;2.65;;;2.40;;
16460;SDS011;8341;42.048;24.650;2023-03-01T11:32:32;3.20;;;2.90;;
16460;SDS011;8341;42.048;24.650;2023-03-01T11:35:08;5.32;;;3.40;;
16460;SDS011;8341;42.048;24.650;2023-03-01T11:37:43;4.70;;;4.30;;
16460;SDS011;8341;42.048;24.650;2023-03-01T11:40:22;6.95;;;3.83;;
16460;SDS011;8341;42.048;24.650;2023-03-01T11:42:54;5.35;;;4.00;;
16460;SDS011;8341;42.048;24.650;2023-03-01T11:45:30;3.67;;;3.15;;
16460;SDS011;8341;42.048;24.650;2023-03-01T11:48:17;3.47;;;3.10;;
16460;SDS011;8341;42.048;24.650;2023-03-01T11:50:59;3.40;;;3.10;;
16460;SDS011;8341;42.048;24.650;2023-03-01T11:53:42;4.57;;;4.18;;
16460;SDS011;8341;42.048;24.650;2023-03-01T11:56:22;7.57;;;4.18;;
16460;SDS011;8341;42.048;24.650;2023-03-01T11:59:15;4.82;;;3.95;;
16460;SDS011;8341;42.048;24.650;2023-03-01T12:01:57;5.80;;;4.82;;
16460;SDS011;8341;42.048;24.650;2023-03-01T12:04:47;5.45;;;4.60;;
16460;SDS011;8341;42.048;24.650;2023-03-01T12:07:32;6.18;;;4.70;;
16460;SDS011;8341;42.048;24.650;2023-03-01T12:10:19;7.72;;;5.10;;
16460;SDS011;8341;42.048;24.650;2023-03-01T12:13:02;6.55;;;4.82;;
16460;SDS011;8341;42.048;24.650;2023-03-01T12:15:58;6.05;;;4.93;;
16460;SDS011;8341;42.048;24.650;2023-03-01T12:21:38;7.90;;;5.18;;
16460;SDS011;8341;42.048;24.650;2023-03-01T12:27:18;5.80;;;4.55;;
16460;SDS011;8341;42.048;24.650;2023-03-01T12:30:00;6.68;;;4.70;;
16460;SDS011;8341;42.048;24.650;2023-03-01T12:32:43;6.35;;;5.05;;
16460;SDS011;8341;42.048;24.650;2023-03-01T12:35:23;5.68;;;4.43;;
16460;SDS011;8341;42.048;24.650;2023-03-01T12:38:02;6.10;;;5.20;;
16460;SDS011;8341;42.048;24.650;2023-03-01T12:40:45;7.18;;;5.10;;
16460;SDS011;8341;42.048;24.650;2023-03-01T12:43:38;7.30;;;5.50;;
16460;SDS011;8341;42.048;24.650;2023-03-01T12:46:20;7.00;;;5.32;;
16460;SDS011;8341;42.048;24.650;2023-03-01T12:48:59;5.28;;;4.75;;
16460;SDS011;8341;42.048;24.650;2023-03-01T12:51:34;9.13;;;4.90;;
16460;SDS011;8341;42.048;24.650;2023-03-01T12:54:05;8.15;;;6.20;;
16460;SDS011;8341;42.048;24.650;2023-03-01T12:56:40;7.32;;;5.18;;
16460;SDS011;8341;42.048;24.650;2023-03-01T12:59:19;6.47;;;5.28;;
16460;SDS011;8341;42.048;24.650;2023-03-01T13:01:53;7.32;;;5.60;;
16460;SDS011;8341;42.048;24.650;2023-03-01T13:04:32;9.18;;;6.78;;
16460;SDS011;8341;42.048;24.650;2023-03-01T13:07:18;7.07;;;6.38;;
16460;SDS011;8341;42.048;24.650;2023-03-01T13:09:55;7.50;;;6.35;;
16460;SDS011;8341;42.048;24.650;2023-03-01T13:15:34;9.98;;;7.22;;
16460;SDS011;8341;42.048;24.650;2023-03-01T13:18:03;11.32;;;8.35;;
16460;SDS011;8341;42.048;24.650;2023-03-01T13:20:51;14.35;;;8.63;;
16460;SDS011;8341;42.048;24.650;2023-03-01T13:23:26;15.35;;;10.60;;
16460;SDS011;8341;42.048;24.650;2023-03-01T13:26:06;10.93;;;8.05;;
16460;SDS011;8341;42.048;24.650;2023-03-01T13:28:50;12.20;;;7.82;;
16460;SDS011;8341;42.048;24.650;2023-03-01T13:37:30;11.73;;;7.97;;
16460;SDS011;8341;42.048;24.650;2023-03-01T13:40:00;11.75;;;8.40;;
16460;SDS011;8341;42.048;24.650;2023-03-01T13:42:34;12.40;;;8.98;;
16460;SDS011;8341;42.048;24.650;2023-03-01T13:48:02;10.52;;;7.90;;
16460;SDS011;8341;42.048;24.650;2023-03-01T13:50:36;9.65;;;8.02;;
16460;SDS011;8341;42.048;24.650;2023-03-01T13:53:10;8.55;;;7.50;;
16460;SDS011;8341;42.048;24.650;2023-03-01T13:55:42;10.93;;;7.55;;
16460;SDS011;8341;42.048;24.650;2023-03-01T13:58:15;10.10;;;8.15;;
16460;SDS011;8341;42.048;24.650;2023-03-01T14:00:47;10.10;;;7.72;;
16460;SDS011;8341;42.048;24.650;2023-03-01T14:03:21;11.80;;;9.00;;
16460;SDS011;8341;42.048;24.650;2023-03-01T14:06:00;11.27;;;8.88;;
16460;SDS011;8341;42.048;24.650;2023-03-01T14:08:35;9.95;;;8.10;;
16460;SDS011;8341;42.048;24.650;2023-03-01T14:14:07;10.60;;;8.20;;
16460;SDS011;8341;42.048;24.650;2023-03-01T14:16:46;12.90;;;8.82;;
16460;SDS011;8341;42.048;24.650;2023-03-01T14:19:21;11.85;;;8.68;;
16460;SDS011;8341;42.048;24.650;2023-03-01T14:21:59;14.10;;;9.38;;
16460;SDS011;8341;42.048;24.650;2023-03-01T14:24:37;12.00;;;9.60;;
16460;SDS011;8341;42.048;24.650;2023-03-01T14:27:09;15.23;;;9.68;;
16460;SDS011;8341;42.048;24.650;2023-03-01T14:29:38;12.98;;;9.25;;
16460;SDS011;8341;42.048;24.650;2023-03-01T14:32:15;12.55;;;8.88;;
16460;SDS011;8341;42.048;24.650;2023-03-01T14:34:45;12.48;;;8.98;;
16460;SDS011;8341;42.048;24.650;2023-03-01T14:37:21;14.13;;;9.93;;
16460;SDS011;8341;42.048;24.650;2023-03-01T14:39:51;11.75;;;9.43;;
16460;SDS011;8341;42.048;24.650;2023-03-01T14:42:18;15.23;;;10.77;;
16460;SDS011;8341;42.048;24.650;2023-03-01T14:44:48;16.58;;;12.40;;
16460;SDS011;8341;42.048;24.650;2023-03-01T14:47:25;26.10;;;15.20;;
16460;SDS011;8341;42.048;24.650;2023-03-01T14:49:56;27.23;;;17.58;;
16460;SDS011;8341;42.048;24.650;2023-03-01T14:52:28;21.05;;;13.70;;
16460;SDS011;8341;42.048;24.650;2023-03-01T14:55:03;24.05;;;16.00;;
16460;SDS011;8341;42.048;24.650;2023-03-01T14:57:31;23.88;;;15.85;;
16460;SDS011;8341;42.048;24.650;2023-03-01T14:59:59;18.35;;;13.57;;
16460;SDS011;8341;42.048;24.650;2023-03-01T15:02:30;17.52;;;12.38;;
16460;SDS011;8341;42.048;24.650;2023-03-01T15:04:59;20.08;;;13.15;;
16460;SDS011;8341;42.048;24.650;2023-03-01T15:07:31;17.63;;;11.77;;
16460;SDS011;8341;42.048;24.650;2023-03-01T15:10:01;19.25;;;14.80;;
16460;SDS011;8341;42.048;24.650;2023-03-01T15:12:34;13.45;;;10.02;;
16460;SDS011;8341;42.048;24.650;2023-03-01T15:17:55;11.02;;;8.45;;
16460;SDS011;8341;42.048;24.650;2023-03-01T15:20:24;48.65;;;33.35;;
16460;SDS011;8341;42.048;24.650;2023-03-01T15:22:56;65.07;;;40.40;;
16460;SDS011;8341;42.048;24.650;2023-03-01T15:25:24;13.57;;;9.82;;
16460;SDS011;8341;42.048;24.650;2023-03-01T15:27:53;18.00;;;12.70;;
16460;SDS011;8341;42.048;24.650;2023-03-01T15:30:23;17.38;;;12.07;;
16460;SDS011;8341;42.048;24.650;2023-03-01T15:33:16;19.05;;;13.75;;
16460;SDS011;8341;42.048;24.650;2023-03-01T15:35:46;18.13;;;12.05;;
16460;SDS011;8341;42.048;24.650;2023-03-01T15:38:24;25.48;;;18.48;;
16460;SDS011;8341;42.048;24.650;2023-03-01T15:41:19;17.05;;;11.18;;
16460;SDS011;8341;42.048;24.650;2023-03-01T15:43:49;21.40;;;13.88;;
16460;SDS011;8341;42.048;24.650;2023-03-01T15:46:20;98.22;;;52.78;;
16460;SDS011;8341;42.048;24.650;2023-03-01T15:48:50;41.63;;;24.17;;
16460;SDS011;8341;42.048;24.650;2023-03-01T15:51:22;17.05;;;11.95;;
16460;SDS011;8341;42.048;24.650;2023-03-01T15:53:57;48.25;;;26.83;;
16460;SDS011;8341;42.048;24.650;2023-03-01T15:56:26;18.58;;;11.70;;
16460;SDS011;8341;42.048;24.650;2023-03-01T15:58:56;18.90;;;12.15;;
16460;SDS011;8341;42.048;24.650;2023-03-01T16:01:24;20.58;;;13.23;;
16460;SDS011;8341;42.048;24.650;2023-03-01T16:03:51;30.83;;;22.20;;
16460;SDS011;8341;42.048;24.650;2023-03-01T16:06:18;20.85;;;12.82;;
16460;SDS011;8341;42.048;24.650;2023-03-01T16:08:45;27.25;;;18.00;;
16460;SDS011;8341;42.048;24.650;2023-03-01T16:11:15;19.67;;;12.77;;
16460;SDS011;8341;42.048;24.650;2023-03-01T16:13:43;17.50;;;11.43;;
16460;SDS011;8341;42.048;24.650;2023-03-01T16:16:11;19.58;;;12.52;;
16460;SDS011;8341;42.048;24.650;2023-03-01T16:18:40;19.43;;;12.40;;
16460;SDS011;8341;42.048;24.650;2023-03-01T16:21:10;23.48;;;12.40;;
16460;SDS011;8341;42.048;24.650;2023-03-01T16:23:40;18.90;;;12.48;;
16460;SDS011;8341;42.048;24.650;2023-03-01T16:26:07;23.67;;;15.70;;
16460;SDS011;8341;42.048;24.650;2023-03-01T16:28:36;23.95;;;14.35;;
16460;SDS011;8341;42.048;24.650;2023-03-01T16:31:03;23.70;;;14.13;;
16460;SDS011;8341;42.048;24.650;2023-03-01T16:33:30;22.25;;;13.30;;
16460;SDS011;8341;42.048;24.650;2023-03-01T16:35:57;22.30;;;13.67;;
16460;SDS011;8341;42.048;24.650;2023-03-01T16:38:25;22.37;;;14.53;;
16460;SDS011;8341;42.048;24.650;2023-03-01T16:40:52;23.33;;;13.60;;
16460;SDS011;8341;42.048;24.650;2023-03-01T16:43:19;22.53;;;12.83;;
16460;SDS011;8341;42.048;24.650;2023-03-01T16:45:47;20.17;;;12.17;;
16460;SDS011;8341;42.048;24.650;2023-03-01T16:48:14;19.27;;;12.27;;
16460;SDS011;8341;42.048;24.650;2023-03-01T16:50:41;19.73;;;12.70;;
16460;SDS011;8341;42.048;24.650;2023-03-01T16:53:08;21.20;;;12.30;;
16460;SDS011;8341;42.048;24.650;2023-03-01T16:55:35;21.67;;;13.20;;
16460;SDS011;8341;42.048;24.650;2023-03-01T16:58:02;21.93;;;12.97;;
16460;SDS011;8341;42.048;24.650;2023-03-01T17:00:30;25.27;;;14.13;;
16460;SDS011;8341;42.048;24.650;2023-03-01T17:02:58;24.53;;;14.00;;
16460;SDS011;8341;42.048;24.650;2023-03-01T17:05:25;28.00;;;15.87;;
16460;SDS011;8341;42.048;24.650;2023-03-01T17:07:52;25.37;;;14.27;;
16460;SDS011;8341;42.048;24.650;2023-03-01T17:10:20;25.27;;;14.55;;
16460;SDS011;8341;42.048;24.650;2023-03-01T17:12:48;23.10;;;14.32;;
16460;SDS011;8341;42.048;24.650;2023-03-01T17:15:15;34.30;;;15.38;;